createdAt,value
2018-03-30T00:58:45.244Z,14.20
2018-03-30T01:01:13.750Z,15.63
2018-03-30T01:03:41.327Z,15.30
2018-03-30T01:06:08.901Z,17.77
2018-03-30T01:08:37.541Z,16.20
2018-03-30T01:11:09.963Z,16.63
2018-03-30T01:13:37.504Z,17.30
2018-03-30T01:16:05.052Z,16.77
2018-03-30T01:18:32.962Z,15.55
2018-03-30T01:21:01.504Z,17.13
2018-03-30T01:23:29.083Z,17.90
2018-03-30T01:25:56.655Z,17.40
2018-03-30T01:28:24.201Z,18.40
2018-03-30T01:30:51.858Z,18.13
2018-03-30T01:33:19.463Z,20.03
2018-03-30T01:35:47.014Z,18.03
2018-03-30T01:38:15.356Z,18.90
2018-03-30T01:40:42.993Z,19.67
2018-03-30T01:43:10.538Z,18.95
2018-03-30T01:45:38.080Z,19.70
2018-03-30T01:48:05.844Z,19.37
2018-03-30T01:50:33.664Z,19.08
2018-03-30T01:53:01.222Z,19.50
2018-03-30T01:55:28.826Z,18.90
2018-03-30T01:57:56.398Z,20.00
2018-03-30T02:00:24.451Z,19.52
2018-03-30T02:02:52.649Z,20.53
2018-03-30T02:05:20.247Z,19.33
2018-03-30T02:07:47.825Z,21.53
2018-03-30T02:10:15.691Z,19.75
2018-03-30T02:12:43.271Z,20.10
2018-03-30T02:15:10.824Z,20.40
2018-03-30T02:17:38.584Z,19.37
2018-03-30T02:20:06.173Z,20.80
2018-03-30T02:22:33.721Z,21.07
2018-03-30T02:25:01.597Z,21.50
2018-03-30T02:27:29.135Z,21.30
2018-03-30T02:29:56.747Z,21.13
2018-03-30T02:32:25.144Z,21.63
2018-03-30T02:34:52.720Z,20.03
2018-03-30T02:37:20.333Z,20.55
2018-03-30T02:39:48.116Z,22.90
2018-03-30T02:42:17.288Z,21.23
2018-03-30T02:44:44.832Z,21.63
2018-03-30T02:47:13.211Z,21.67
2018-03-30T02:49:40.784Z,19.43
2018-03-30T02:52:08.348Z,20.12
2018-03-30T02:54:35.937Z,20.33
2018-03-30T02:57:03.472Z,19.25
2018-03-30T02:59:31.416Z,20.13
2018-03-30T03:01:59.545Z,20.83
2018-03-30T03:04:27.115Z,20.47
2018-03-30T03:06:54.687Z,20.47
2018-03-30T03:09:22.899Z,20.07
2018-03-30T03:11:50.436Z,20.95
2018-03-30T03:14:18.044Z,21.30
2018-03-30T03:16:45.802Z,23.50
2018-03-30T03:19:34.957Z,22.02
2018-03-30T03:30:39.040Z,21.65
2018-03-30T03:33:07.543Z,19.80
2018-03-30T03:35:35.092Z,19.10
2018-03-30T03:38:02.655Z,20.23
2018-03-30T03:40:30.980Z,19.20
2018-03-30T03:42:58.528Z,20.42
2018-03-30T03:45:26.143Z,22.20
2018-03-30T03:47:53.764Z,20.00
2018-03-30T03:50:21.395Z,20.53
2018-03-30T03:52:49.551Z,19.50
2018-03-30T03:55:17.088Z,18.80
2018-03-30T03:57:44.668Z,19.17
2018-03-30T04:00:12.309Z,19.50
2018-03-30T04:02:40.096Z,19.70
2018-03-30T04:05:07.686Z,20.17
2018-03-30T04:07:35.333Z,20.60
2018-03-30T04:10:02.945Z,18.80
2018-03-30T04:12:30.698Z,17.90
2018-03-30T04:14:58.343Z,20.40
2018-03-30T04:17:26.028Z,18.60
2018-03-30T04:19:53.697Z,18.83
2018-03-30T04:22:21.315Z,19.53
2018-03-30T04:24:48.931Z,18.50
2018-03-30T04:27:31.212Z,19.25
2018-03-30T04:29:58.875Z,19.23
2018-03-30T04:32:26.418Z,19.33
2018-03-30T04:34:54.485Z,17.97
2018-03-30T04:37:22.098Z,18.30
2018-03-30T04:39:49.640Z,20.53
2018-03-30T04:42:17.248Z,20.47
2018-03-30T04:44:44.807Z,20.37
2018-03-30T04:47:12.338Z,21.77
2018-03-30T04:49:40.021Z,19.67
2018-03-30T04:52:07.585Z,19.00
2018-03-30T04:54:35.225Z,17.90
2018-03-30T04:57:05.688Z,20.27
2018-03-30T04:59:33.232Z,19.90
2018-03-30T05:02:00.781Z,18.50
2018-03-30T05:04:28.920Z,18.00
2018-03-30T05:06:56.456Z,16.87
2018-03-30T05:09:24.196Z,16.80
2018-03-30T05:11:52.576Z,18.23
2018-03-30T05:14:20.202Z,16.12
2018-03-30T05:16:47.756Z,17.13
2018-03-30T05:19:16.848Z,16.55
2018-03-30T05:21:44.455Z,16.00
2018-03-30T05:24:11.991Z,16.70
2018-03-30T05:26:39.575Z,16.73
2018-03-30T05:29:07.116Z,18.03
2018-03-30T05:31:34.651Z,18.47
2018-03-30T05:34:02.221Z,19.03
2018-03-30T05:36:29.820Z,21.30
2018-03-30T05:38:57.363Z,20.37
2018-03-30T05:41:25.155Z,18.90
2018-03-30T05:43:52.692Z,19.50
2018-03-30T05:46:20.236Z,22.23
2018-03-30T05:48:47.813Z,19.93
2018-03-30T05:51:15.805Z,19.47
2018-03-30T05:53:43.419Z,19.10
2018-03-30T05:56:10.988Z,19.47
2018-03-30T05:58:38.519Z,17.80
2018-03-30T06:01:06.056Z,16.57
2018-03-30T06:03:33.676Z,17.90
2018-03-30T06:06:01.455Z,18.33
2018-03-30T06:08:29.054Z,18.45
2018-03-30T06:10:56.683Z,18.62
2018-03-30T06:13:24.233Z,18.23
2018-03-30T06:15:51.776Z,17.30
2018-03-30T06:20:55.148Z,16.93
2018-03-30T06:23:22.755Z,17.83
2018-03-30T06:25:54.380Z,16.50
2018-03-30T06:28:21.919Z,15.30
2018-03-30T06:44:45.672Z,16.00
2018-03-30T06:47:15.505Z,15.70
2018-03-30T06:49:43.271Z,15.23
2018-03-30T06:52:12.658Z,16.57
2018-03-30T06:57:46.959Z,16.80
2018-03-30T07:11:58.446Z,12.97
2018-03-30T07:17:34.048Z,12.37
2018-03-30T07:23:07.967Z,12.80
2018-03-30T07:25:42.553Z,11.70
2018-03-30T07:28:10.895Z,11.10
2018-03-30T07:30:38.433Z,10.05
2018-03-30T07:33:06.704Z,12.20
2018-03-30T07:35:35.780Z,11.60
2018-03-30T07:38:03.380Z,11.68
2018-03-30T07:40:31.009Z,10.70
2018-03-30T07:42:58.653Z,11.30
2018-03-30T07:45:29.823Z,11.80
2018-03-30T07:47:57.368Z,11.60
2018-03-30T07:50:24.950Z,11.27
2018-03-30T07:52:52.508Z,11.33
2018-03-30T07:55:20.047Z,9.82
2018-03-30T07:57:47.636Z,10.03
2018-03-30T08:00:16.412Z,10.28
2018-03-30T08:02:43.957Z,11.20
2018-03-30T08:05:12.284Z,10.70
2018-03-30T08:07:41.540Z,9.60
2018-03-30T08:10:09.520Z,8.07
2018-03-30T08:12:37.265Z,9.10
2018-03-30T08:15:04.949Z,8.43
2018-03-30T08:17:32.613Z,9.40
2018-03-30T08:20:00.301Z,9.00
2018-03-30T08:22:27.964Z,9.70
2018-03-30T08:24:55.530Z,9.70
2018-03-30T08:27:23.131Z,10.40
2018-03-30T08:29:51.436Z,10.20
2018-03-30T08:32:18.973Z,8.30
2018-03-30T08:34:46.648Z,8.80
2018-03-30T08:37:27.249Z,8.03
2018-03-30T08:42:58.866Z,6.17
2018-03-30T08:45:27.177Z,6.07
2018-03-30T08:47:54.708Z,6.10
2018-03-30T08:50:23.036Z,4.80
2018-03-30T08:52:50.584Z,5.77
2018-03-30T08:55:18.189Z,4.10
2018-03-30T08:57:45.768Z,4.57
2018-03-30T09:00:27.028Z,5.20
2018-03-30T09:06:05.181Z,2.80
2018-03-30T09:08:32.976Z,3.95
2018-03-30T09:11:00.716Z,3.47
2018-03-30T09:13:28.389Z,4.43
2018-03-30T09:15:56.155Z,4.00
2018-03-30T09:18:23.785Z,3.87
2018-03-30T09:20:51.550Z,5.07
2018-03-30T09:23:20.005Z,4.35
2018-03-30T09:25:48.590Z,5.60
2018-03-30T09:28:16.475Z,4.10
2018-03-30T09:30:44.506Z,5.00
2018-03-30T09:33:17.704Z,5.23
2018-03-30T09:35:45.377Z,5.60
2018-03-30T09:38:25.311Z,5.10
2018-03-30T09:47:08.396Z,5.77
2018-03-30T09:49:35.943Z,7.23
2018-03-30T09:52:03.472Z,7.47
2018-03-30T09:54:31.035Z,8.70
2018-03-30T09:56:58.572Z,7.87
2018-03-30T09:59:26.871Z,10.27
2018-03-30T10:01:54.444Z,13.80
2018-03-30T10:04:23.789Z,9.73
2018-03-30T10:06:57.320Z,7.73
2018-03-30T10:09:25.631Z,7.50
2018-03-30T10:11:53.185Z,5.33
2018-03-30T10:14:23.330Z,6.55
2018-03-30T10:16:51.699Z,6.43
2018-03-30T10:19:19.244Z,5.73
2018-03-30T10:21:51.450Z,6.30
2018-03-30T10:24:19.692Z,5.60
2018-03-30T10:26:47.788Z,5.77
2018-03-30T10:29:16.523Z,5.15
2018-03-30T10:31:46.175Z,5.60
2018-03-30T10:37:06.314Z,5.50
2018-03-30T10:39:38.109Z,5.20
2018-03-30T10:42:07.714Z,5.00
2018-03-30T10:44:37.971Z,5.00
2018-03-30T10:47:06.046Z,4.93
2018-03-30T10:49:34.635Z,4.15
2018-03-30T10:52:02.292Z,4.40
2018-03-30T10:54:37.096Z,3.53
2018-03-30T10:57:04.749Z,3.43
2018-03-30T10:59:35.726Z,2.97
2018-03-30T11:02:03.396Z,2.83
2018-03-30T11:04:32.364Z,2.70
2018-03-30T11:06:59.994Z,2.60
2018-03-30T11:09:28.118Z,3.55
2018-03-30T11:11:55.806Z,2.43
2018-03-30T11:14:23.512Z,2.60
2018-03-30T11:16:51.241Z,2.60
2018-03-30T11:19:23.444Z,2.70
2018-03-30T11:21:51.136Z,2.53
2018-03-30T11:24:18.803Z,2.80
2018-03-30T11:26:46.461Z,2.70
2018-03-30T11:29:26.168Z,2.80
2018-03-30T11:34:38.561Z,1.80
2018-03-30T11:37:07.703Z,1.70
2018-03-30T11:39:35.326Z,1.90
2018-03-30T11:42:03.825Z,1.93
2018-03-30T11:44:31.424Z,2.05
2018-03-30T11:46:59.045Z,2.00
2018-03-30T11:49:26.844Z,2.67
2018-03-30T11:51:54.469Z,2.20
2018-03-30T11:54:22.084Z,2.53
2018-03-30T11:56:49.720Z,2.13
2018-03-30T11:59:17.331Z,2.10
2018-03-30T12:01:45.008Z,1.63
2018-03-30T12:04:12.664Z,1.50
2018-03-30T12:06:41.058Z,1.90
2018-03-30T12:09:08.738Z,2.00
2018-03-30T12:11:38.675Z,2.30
2018-03-30T12:14:06.309Z,2.27
2018-03-30T12:16:33.858Z,2.20
2018-03-30T12:19:01.505Z,2.23
2018-03-30T12:21:29.063Z,1.90
2018-03-30T12:23:57.406Z,2.73
2018-03-30T12:26:25.588Z,2.10
2018-03-30T12:28:53.297Z,1.83
2018-03-30T12:31:20.898Z,2.13
2018-03-30T12:33:48.493Z,2.10
2018-03-30T12:38:52.456Z,2.57
2018-03-30T12:41:20.076Z,2.03
2018-03-30T12:43:47.678Z,2.00
2018-03-30T12:46:16.906Z,2.20
2018-03-30T12:48:44.563Z,1.95
2018-03-30T12:51:13.226Z,1.83
2018-03-30T12:53:40.862Z,2.40
2018-03-30T12:56:09.184Z,1.90
2018-03-30T12:58:36.729Z,1.90
2018-03-30T13:01:04.428Z,3.13
2018-03-30T13:03:31.997Z,2.97
2018-03-30T13:05:59.685Z,2.03
2018-03-30T13:08:28.113Z,2.40
2018-03-30T13:10:55.825Z,2.20
2018-03-30T13:13:23.528Z,2.13
2018-03-30T13:15:51.108Z,2.80
2018-03-30T13:18:18.694Z,2.28
2018-03-30T13:20:46.264Z,2.70
2018-03-30T13:23:25.576Z,4.20
2018-03-30T13:30:50.683Z,3.10
2018-03-30T13:33:19.064Z,3.47
2018-03-30T13:35:46.693Z,3.20
2018-03-30T13:38:26.615Z,4.25
2018-03-30T13:51:42.375Z,4.60
2018-03-30T13:54:19.926Z,3.80
2018-03-30T13:56:49.301Z,4.32
2018-03-30T13:59:29.483Z,4.40
2018-03-30T14:02:07.985Z,5.03
2018-03-30T14:04:37.371Z,4.83
2018-03-30T14:07:08.575Z,5.43
2018-03-30T14:09:36.177Z,5.17
2018-03-30T14:15:00.201Z,5.90
2018-03-30T14:17:48.260Z,5.93
2018-03-30T14:23:29.409Z,5.43
2018-03-30T14:26:13.496Z,6.00
2018-03-30T14:28:52.220Z,6.87
2018-03-30T14:31:30.484Z,5.57
2018-03-30T14:34:00.584Z,6.70
2018-03-30T14:36:34.851Z,6.05
2018-03-30T14:39:08.163Z,5.90
2018-03-30T14:41:35.792Z,6.30
2018-03-30T14:44:07.556Z,6.23
2018-03-30T14:46:41.517Z,6.20
2018-03-30T14:49:12.984Z,6.07
2018-03-30T14:52:14.222Z,5.60
2018-03-30T14:54:43.708Z,6.30
2018-03-30T14:57:12.016Z,6.07
2018-03-30T14:59:53.625Z,6.03
2018-03-30T15:02:28.836Z,6.03
2018-03-30T15:05:07.993Z,6.03
2018-03-30T15:07:42.409Z,6.78
2018-03-30T15:10:15.180Z,6.13
2018-03-30T15:12:48.459Z,6.47
2018-03-30T15:21:22.828Z,5.63
2018-03-30T15:23:50.373Z,5.60
2018-03-30T15:26:17.930Z,6.50
2018-03-30T15:28:52.043Z,6.23
2018-03-30T15:34:38.892Z,7.20
2018-03-30T15:37:15.083Z,6.10
2018-03-30T15:42:49.974Z,6.20
2018-03-30T15:48:31.701Z,6.27
2018-03-30T15:50:59.328Z,7.33
2018-03-30T15:53:26.453Z,6.83
2018-03-30T15:55:54.071Z,7.00
2018-03-30T15:58:21.710Z,6.70
2018-03-30T16:00:49.268Z,6.23
2018-03-30T16:03:16.820Z,7.00
2018-03-30T16:05:44.401Z,7.37
2018-03-30T16:08:12.009Z,6.50
2018-03-30T16:10:43.836Z,6.33
2018-03-30T16:13:12.180Z,6.47
2018-03-30T16:15:40.148Z,6.77
2018-03-30T16:18:07.745Z,6.50
2018-03-30T16:20:34.912Z,6.33
2018-03-30T16:23:02.013Z,7.00
2018-03-30T16:25:29.116Z,6.10
2018-03-30T16:27:56.221Z,5.73
2018-03-30T16:30:23.277Z,6.30
2018-03-30T16:32:50.347Z,7.13
2018-03-30T16:35:17.504Z,6.53
2018-03-30T16:37:44.580Z,7.20
2018-03-30T16:40:13.323Z,8.73
2018-03-30T16:42:40.490Z,7.17
2018-03-30T16:45:07.559Z,7.50
2018-03-30T16:47:34.627Z,8.10
2018-03-30T16:50:01.731Z,7.10
2018-03-30T16:52:30.076Z,6.50
2018-03-30T16:54:57.136Z,6.73
2018-03-30T16:57:24.266Z,7.68
2018-03-30T16:59:52.431Z,7.50
2018-03-30T17:02:20.380Z,6.30
2018-03-30T17:04:48.243Z,7.10
2018-03-30T17:07:16.704Z,6.50
2018-03-30T17:09:43.776Z,6.30
2018-03-30T17:12:10.879Z,7.87
2018-03-30T17:14:37.950Z,7.20
2018-03-30T17:17:05.412Z,7.43
2018-03-30T17:19:32.871Z,6.70
2018-03-30T17:22:00.006Z,7.27
2018-03-30T17:24:30.318Z,7.70
2018-03-30T17:26:58.289Z,7.07
2018-03-30T17:29:25.360Z,7.90
2018-03-30T17:31:52.427Z,6.63
2018-03-30T17:34:19.648Z,6.80
2018-03-30T17:36:46.808Z,7.00
2018-03-30T17:39:16.003Z,7.30
2018-03-30T17:41:44.289Z,6.50
2018-03-30T17:44:11.350Z,7.17
2018-03-30T17:46:38.416Z,7.50
2018-03-30T17:49:06.272Z,6.67
2018-03-30T17:51:33.477Z,8.25
2018-03-30T17:54:00.527Z,9.17
2018-03-30T17:56:27.603Z,7.35
2018-03-30T17:58:54.807Z,8.13
2018-03-30T18:01:21.876Z,6.22
2018-03-30T18:03:49.064Z,6.90
2018-03-30T18:06:16.175Z,6.75
2018-03-30T18:08:43.231Z,6.67
2018-03-30T18:11:10.352Z,7.37
2018-03-30T18:13:37.421Z,5.93
2018-03-30T18:16:04.500Z,6.83
2018-03-30T18:18:32.773Z,6.50
2018-03-30T18:20:59.891Z,6.43
2018-03-30T18:23:27.118Z,6.90
2018-03-30T18:25:54.863Z,7.03
2018-03-30T18:28:21.936Z,6.17
2018-03-30T18:30:49.034Z,6.00
2018-03-30T18:33:16.124Z,5.80
2018-03-30T18:35:43.197Z,6.13
2018-03-30T18:38:10.247Z,6.40
2018-03-30T18:40:37.393Z,6.43
2018-03-30T18:43:05.345Z,6.47
2018-03-30T18:45:32.416Z,5.87
2018-03-30T18:47:59.843Z,5.10
2018-03-30T18:50:27.804Z,6.37
2018-03-30T18:52:57.548Z,6.43
2018-03-30T18:55:24.628Z,5.60
2018-03-30T18:57:51.675Z,6.43
2018-03-30T19:00:18.724Z,6.37
2018-03-30T19:02:45.908Z,6.20
2018-03-30T19:05:14.191Z,6.57
2018-03-30T19:15:36.353Z,7.95
2018-03-30T19:18:03.421Z,8.00
2018-03-30T19:20:30.715Z,8.50
2018-03-30T19:22:57.792Z,8.00
2018-03-30T19:25:24.869Z,8.13
2018-03-30T19:27:52.701Z,8.70
2018-03-30T19:30:19.806Z,8.38
2018-03-30T19:32:46.977Z,8.70
2018-03-30T19:35:15.900Z,8.33
2018-03-30T19:37:44.660Z,8.90
2018-03-30T19:40:11.737Z,9.17
2018-03-30T19:42:38.828Z,8.50
2018-03-30T19:45:06.696Z,9.00
2018-03-30T19:47:34.512Z,9.07
2018-03-30T19:50:01.564Z,8.33
2018-03-30T19:52:28.723Z,8.23
2018-03-30T19:54:55.882Z,8.40
2018-03-30T19:57:23.746Z,7.70
2018-03-30T19:59:51.546Z,8.93
2018-03-30T20:02:18.652Z,8.77
2018-03-30T20:04:45.723Z,8.63
2018-03-30T20:07:14.132Z,8.18
2018-03-30T20:09:41.179Z,7.70
2018-03-30T20:12:08.225Z,7.47
2018-03-30T20:14:36.557Z,7.70
2018-03-30T20:17:03.706Z,8.77
2018-03-30T20:19:30.822Z,9.25
2018-03-30T20:21:58.631Z,10.07
2018-03-30T20:24:25.675Z,8.93
2018-03-30T20:26:52.924Z,9.10
2018-03-30T20:29:20.005Z,8.02
2018-03-30T20:31:47.824Z,8.27
2018-03-30T20:34:15.970Z,9.13
2018-03-30T20:36:43.068Z,8.87
2018-03-30T20:39:10.220Z,10.47
2018-03-30T20:41:37.264Z,9.40
2018-03-30T20:44:04.714Z,8.90
2018-03-30T20:46:31.840Z,10.30
2018-03-30T20:48:59.043Z,9.73
2018-03-30T20:51:26.996Z,9.90
2018-03-30T20:53:55.021Z,11.07
2018-03-30T20:56:22.152Z,9.85
2018-03-30T20:58:49.228Z,10.33
2018-03-30T21:01:16.289Z,8.80
2018-03-30T21:03:45.377Z,8.43
2018-03-30T21:06:14.896Z,8.35
2018-03-30T21:08:41.988Z,7.85
2018-03-30T21:11:09.426Z,7.97
2018-03-30T21:13:36.713Z,7.33
2018-03-30T21:16:03.806Z,7.27
2018-03-30T21:18:31.672Z,6.95
2018-03-30T21:20:58.911Z,6.60
2018-03-30T21:23:26.386Z,6.55
2018-03-30T21:25:53.463Z,6.13
2018-03-30T21:28:20.614Z,5.90
2018-03-30T21:30:48.436Z,6.37
2018-03-30T21:33:15.946Z,6.80
2018-03-30T21:35:43.100Z,8.02
2018-03-30T21:38:10.197Z,9.30
2018-03-30T21:40:37.247Z,10.50
2018-03-30T21:43:04.348Z,11.27
2018-03-30T21:45:34.098Z,11.80
2018-03-30T21:48:01.269Z,12.00
2018-03-30T21:50:29.140Z,12.90
2018-03-30T21:52:56.988Z,13.23
2018-03-30T21:55:24.047Z,12.73
2018-03-30T21:57:51.340Z,13.80
2018-03-30T22:00:19.500Z,14.43
2018-03-30T22:02:46.809Z,14.27
2018-03-30T22:05:16.077Z,12.10
2018-03-30T22:07:43.124Z,12.73
2018-03-30T22:10:10.167Z,13.57
2018-03-30T22:12:37.781Z,13.67
2018-03-30T22:15:04.837Z,15.63
2018-03-30T22:17:31.878Z,14.45
2018-03-30T22:19:59.153Z,15.17
2018-03-30T22:22:26.260Z,15.30
2018-03-30T22:24:53.605Z,15.77
2018-03-30T22:27:20.809Z,14.93
2018-03-30T22:29:47.914Z,13.32
2018-03-30T22:32:14.998Z,13.70
2018-03-30T22:34:42.747Z,12.60
2018-03-30T22:37:09.800Z,12.47
2018-03-30T22:39:36.856Z,12.97
2018-03-30T22:42:03.929Z,11.70
2018-03-30T22:44:31.742Z,11.70
2018-03-30T22:46:58.820Z,11.43
2018-03-30T22:49:25.898Z,10.13
2018-03-30T22:51:52.986Z,10.43
2018-03-30T22:54:20.364Z,10.56
2018-03-30T22:56:48.327Z,10.90
2018-03-30T22:59:16.796Z,9.98
2018-03-30T23:01:43.845Z,8.38
2018-03-30T23:04:10.926Z,8.23
2018-03-30T23:06:37.998Z,8.20
2018-03-30T23:09:05.047Z,8.30
2018-03-30T23:11:32.898Z,7.37
2018-03-30T23:13:59.944Z,7.93
2018-03-30T23:16:27.003Z,7.60
2018-03-30T23:18:54.961Z,6.73
2018-03-30T23:21:22.015Z,7.15
2018-03-30T23:23:49.848Z,7.13
2018-03-30T23:26:17.608Z,6.80
2018-03-30T23:28:44.648Z,6.43
2018-03-30T23:31:11.716Z,7.37
2018-03-30T23:33:38.791Z,7.20
2018-03-30T23:36:06.616Z,7.27
2018-03-30T23:38:33.665Z,6.40
2018-03-30T23:41:01.032Z,6.50
2018-03-30T23:43:28.078Z,6.10
2018-03-30T23:45:55.120Z,5.97
2018-03-30T23:48:22.205Z,6.30
2018-03-30T23:50:50.013Z,5.57
2018-03-30T23:53:17.059Z,6.47
2018-03-30T23:55:44.156Z,6.60
2018-03-30T23:58:11.216Z,5.63
